This is the latest recevied weather packets stored in our database for station/object YC0TBU-3. If no packets are shown the sender has not sent any weather packets the latest 10 day(s).
| Time | Temp. | Humidity | Pressure | Rain* | Wind** | Luminosity | Snow |
|---|---|---|---|---|---|---|---|
| 1787706933 | 30.56° C | 63% | 1017.7 hPa | - | - | - | - |
| 1787705243 | 30.56° C | 64% | 1017.5 hPa | - | - | - | - |
| 1787703516 | 30° C | 69% | 1017.2 hPa | - | - | - | - |
| 1787701816 | 30° C | 69% | 1017 hPa | - | - | - | - |
| 1787700117 | 30° C | 69% | 1017.7 hPa | - | - | - | - |
| 1787698416 | 30° C | 42% | - | - | - | - | - |
| 1787696717 | 30° C | 69% | 1016.3 hPa | - | - | - | - |
| 1787695017 | 30.56° C | 68% | 1015.7 hPa | - | - | - | - |
| 1787693317 | 30.56° C | 68% | 1014.9 hPa | - | - | - | - |
| 1787691617 | 30.56° C | 68% | 1015.2 hPa | - | - | - | - |
| 1787689917 | 30.56° C | 67% | 1015.4 hPa | - | - | - | - |
| 1787688217 | 30.56° C | 67% | 1015.9 hPa | - | - | - | - |
| 1787686527 | 31.11° C | 67% | 1016.2 hPa | - | - | - | - |
| 1787683131 | 31.11° C | 66% | 1015.2 hPa | - | - | - | - |
| 1787681409 | 31.67° C | 66% | 1016.3 hPa | - | - | - | - |
| 1787679669 | 31.11° C | 65% | 1016.7 hPa | - | - | - | - |
| 1787677969 | 31.11° C | 65% | 1016.3 hPa | - | - | - | - |
| 1787676269 | 31.67° C | 64% | 1017.5 hPa | - | - | - | - |
| 1787674569 | 31.67° C | 63% | 1016.2 hPa | - | - | - | - |
| 1787672878 | 31.67° C | 63% | 1016 hPa | - | - | - | - |
| 1787671163 | 32.22° C | 61% | 1015.6 hPa | - | - | - | - |
| 1787669437 | 32.22° C | 61% | 1016.3 hPa | - | - | - | - |
| 1787667782 | 32.22° C | 58% | 1016.5 hPa | - | - | - | - |
| 1787666071 | 32.78° C | 55% | 1015.9 hPa | - | - | - | - |
| 1787664348 | 32.78° C | 55% | 1015.6 hPa | - | - | - | - |
* Rain since midnight (hover to see other rain measurements)
** Current wind speed in m/s (hover to see current wind gust speed)